Time;durP1;ratioP1;P1;durP2;ratioP2;P2;SDS_P1;SDS_P2;PMS_P1;PMS_P2;Temp;Humidity;BMP_temperature;BMP_pressure;BME280_temperature;BME280_humidity;BME280_pressure;Samples;Min_cycle;Max_cycle;Signal;HPM_P1;HPM_P2
2023/10/01 00:01:43;;;;;;;;;3.00;2.33;;;;;22.32;66.04;100806.09;5078275;28;46191;-74
2023/10/01 00:04:10;;;;;;;;;4.00;3.33;;;;;22.30;65.92;100800.81;5074279;28;45902;-77
2023/10/01 00:06:36;;;;;;;;;4.00;2.00;;;;;22.30;66.48;100797.28;5065199;28;45784;-77
2023/10/01 00:09:06;;;;;;;;;3.00;2.67;;;;;22.25;66.15;100797.34;5067356;27;45443;-77
2023/10/01 00:11:34;;;;;;;;;3.00;3.00;;;;;22.23;66.52;100794.66;5073990;28;45371;-73
2023/10/01 00:13:59;;;;;;;;;2.33;1.67;;;;;22.28;66.17;100807.94;5077994;28;45516;-77
2023/10/01 00:16:27;;;;;;;;;2.33;2.33;;;;;22.21;66.25;100803.56;5077783;28;45190;-77
2023/10/01 00:18:54;;;;;;;;;3.00;3.00;;;;;22.15;65.99;100793.03;5078561;28;45513;-73
2023/10/01 00:21:19;;;;;;;;;3.33;3.00;;;;;22.14;66.29;100799.22;5061084;28;45445;-76
2023/10/01 00:23:46;;;;;;;;;3.00;3.00;;;;;22.12;66.36;100806.34;5073778;28;45434;-73
2023/10/01 00:26:11;;;;;;;;;2.33;2.33;;;;;21.99;66.46;100795.00;5066657;28;45394;-76
2023/10/01 00:28:37;;;;;;;;;2.67;2.67;;;;;22.00;66.53;100799.41;5065832;28;45461;-72
2023/10/01 00:31:03;;;;;;;;;0.00;0.00;;;;;21.97;66.50;100792.38;5073298;28;46123;-74
2023/10/01 00:33:29;;;;;;;;;2.33;2.33;;;;;21.90;66.47;100779.16;5077901;27;45833;-73
2023/10/01 00:35:55;;;;;;;;;2.67;2.67;;;;;21.96;66.41;100795.03;5077289;28;45339;-73
2023/10/01 00:38:20;;;;;;;;;1.67;1.67;;;;;21.92;66.39;100793.31;5066528;28;45358;-73
2023/10/01 00:40:49;;;;;;;;;3.00;2.00;;;;;21.85;66.33;100790.75;5058195;28;46161;-76
2023/10/01 00:43:14;;;;;;;;;3.00;2.00;;;;;21.86;66.57;100794.28;5077629;28;45761;-72
2023/10/01 00:45:40;;;;;;;;;1.00;1.00;;;;;21.91;66.10;100804.88;5068346;28;45633;-77
2023/10/01 00:48:14;;;;;;;;;3.00;3.00;;;;;21.88;66.03;100788.94;5071243;28;45474;-74
2023/10/01 00:50:41;;;;;;;;;3.00;3.00;;;;;21.87;65.88;100787.19;5055926;28;45634;-73
2023/10/01 00:53:08;;;;;;;;;1.00;1.00;;;;;21.87;66.08;100776.56;5060992;28;45878;-74
2023/10/01 00:55:34;;;;;;;;;2.67;2.00;;;;;21.90;65.99;100776.50;5076973;28;45261;-73
2023/10/01 00:58:00;;;;;;;;;3.00;2.67;;;;;21.85;65.48;100773.91;5076993;28;45376;-73
2023/10/01 01:00:26;;;;;;;;;3.00;3.00;;;;;21.82;65.47;100772.16;5077014;28;45481;-73
2023/10/01 01:03:05;;;;;;;;;3.00;2.33;;;;;21.82;66.32;100781.91;5056207;28;45492;-73
2023/10/01 01:05:57;;;;;;;;;2.67;2.67;;;;;21.78;65.70;100782.84;5069545;28;45454;-74
2023/10/01 01:08:34;;;;;;;;;2.00;2.00;;;;;21.68;66.19;100770.56;5072177;28;45415;-73
2023/10/01 01:11:01;;;;;;;;;0.00;0.00;;;;;21.57;66.77;100776.91;5055784;28;46279;-77
2023/10/01 01:13:29;;;;;;;;;0.67;0.67;;;;;21.54;66.96;100760.97;5065083;28;45458;-73
2023/10/01 01:15:57;;;;;;;;;2.00;2.00;;;;;21.53;66.86;100764.56;5047247;28;45469;-77
2023/10/01 01:18:26;;;;;;;;;2.00;2.00;;;;;21.56;66.69;100767.16;5049318;28;45533;-76
2023/10/01 01:21:05;;;;;;;;;2.00;2.00;;;;;21.52;66.39;100762.78;5077018;28;45339;-77
2023/10/01 01:23:31;;;;;;;;;3.00;3.00;;;;;21.59;66.43;100769.78;5077056;27;45418;-77
2023/10/01 01:25:57;;;;;;;;;2.67;2.67;;;;;21.54;66.43;100763.63;5056101;28;45439;-77
2023/10/01 01:28:32;;;;;;;;;2.33;2.00;;;;;21.53;65.98;100780.50;5059672;28;45427;-77
2023/10/01 01:30:59;;;;;;;;;1.67;1.67;;;;;21.37;66.29;100752.31;5050875;28;45436;-73
2023/10/01 01:33:42;;;;;;;;;2.00;2.00;;;;;21.48;66.74;100771.69;5067894;28;45411;-77
2023/10/01 01:36:17;;;;;;;;;2.00;2.00;;;;;21.47;66.40;100772.59;5075863;28;45783;-77
2023/10/01 01:39:26;;;;;;;;;2.67;2.33;;;;;21.38;66.44;100759.38;5076801;28;45410;-75
2023/10/01 01:41:52;;;;;;;;;3.00;2.00;;;;;21.35;66.58;100756.75;5057859;28;47206;-77
2023/10/01 01:44:19;;;;;;;;;1.67;1.67;;;;;21.39;66.44;100764.69;5058770;28;45328;-77
2023/10/01 01:46:48;;;;;;;;;2.33;2.33;;;;;21.39;66.25;100759.34;5076490;27;45323;-77
2023/10/01 01:49:18;;;;;;;;;2.67;2.00;;;;;21.25;66.43;100732.94;5077029;28;45520;-77
2023/10/01 01:51:57;;;;;;;;;3.00;2.67;;;;;21.34;66.45;100755.84;5075662;28;45514;-77
2023/10/01 01:54:36;;;;;;;;;2.00;2.00;;;;;21.34;67.07;100760.31;5067868;28;45442;-76
2023/10/01 01:57:03;;;;;;;;;3.00;3.00;;;;;21.26;66.96;100744.44;5070945;28;45518;-77
2023/10/01 01:59:29;;;;;;;;;2.00;2.00;;;;;21.26;66.51;100750.63;5040202;28;45426;-77
2023/10/01 02:01:56;;;;;;;;;3.00;2.00;;;;;21.25;66.43;100743.56;5062647;28;46050;-77
2023/10/01 02:04:22;;;;;;;;;3.67;3.00;;;;;21.24;67.10;100743.56;5076383;28;45349;-77
2023/10/01 02:06:48;;;;;;;;;3.00;2.00;;;;;21.24;67.14;100741.78;5061821;28;45431;-77
2023/10/01 02:09:19;;;;;;;;;2.33;2.00;;;;;21.17;66.80;100728.59;5073779;28;45409;-77
2023/10/01 02:11:49;;;;;;;;;0.33;0.33;;;;;21.20;66.82;100737.41;5076119;28;46267;-77
2023/10/01 02:14:30;;;;;;;;;2.00;2.00;;;;;21.19;66.86;100729.47;5054795;28;45470;-76
2023/10/01 02:17:03;;;;;;;;;3.00;2.00;;;;;21.18;66.88;100731.25;5074290;28;45612;-72
2023/10/01 02:19:29;;;;;;;;;3.33;3.00;;;;;21.08;67.02;100713.63;5069384;28;45449;-73
2023/10/01 02:22:05;;;;;;;;;3.00;2.67;;;;;21.09;66.55;100714.50;5067731;28;45434;-77
2023/10/01 02:27:11;;;;;;;;;3.00;2.00;;;;;21.08;66.21;100712.78;5069139;28;45474;-73
2023/10/01 02:30:39;;;;;;;;;2.33;2.00;;;;;21.14;66.11;100720.66;5067615;28;45517;-73
2023/10/01 02:32:34;;;;;;;;;0.00;0.00;;;;;21.04;66.64;100712.78;5045770;28;46035;-75
2023/10/01 02:34:59;;;;;;;;;2.67;2.67;;;;;21.04;66.54;100719.88;5076179;28;45587;-77
2023/10/01 02:37:29;;;;;;;;;3.00;3.00;;;;;20.97;66.64;100716.41;5064758;28;45431;-77
2023/10/01 02:39:59;;;;;;;;;3.00;3.00;;;;;20.96;66.41;100713.78;5072108;28;45694;-77
2023/10/01 02:42:28;;;;;;;;;2.33;2.33;;;;;20.97;66.99;100732.34;5054487;28;45417;-77
2023/10/01 02:44:54;;;;;;;;;2.33;2.33;;;;;20.92;66.74;100735.94;5055711;28;45541;-77
2023/10/01 02:47:20;;;;;;;;;2.67;2.67;;;;;20.84;66.91;100728.03;5064888;28;45358;-76
2023/10/01 02:49:52;;;;;;;;;2.00;2.00;;;;;20.80;67.79;100721.00;5063343;28;45318;-73
2023/10/01 02:52:21;;;;;;;;;2.00;2.00;;;;;20.80;68.19;100719.22;5039349;28;46299;-73
2023/10/01 02:54:54;;;;;;;;;2.67;2.67;;;;;20.70;68.34;100709.59;5048666;28;45446;-74
2023/10/01 02:57:23;;;;;;;;;2.67;2.67;;;;;20.72;68.51;100710.47;5067161;28;45423;-73
2023/10/01 03:02:38;;;;;;;;;2.67;2.00;;;;;20.69;68.05;100715.81;5058526;28;45816;-74
2023/10/01 03:05:08;;;;;;;;;2.00;2.00;;;;;20.71;67.82;100710.47;5055739;28;45710;-77
2023/10/01 03:07:40;;;;;;;;;2.67;2.67;;;;;20.75;67.24;100722.81;5063373;28;45493;-74
2023/10/01 03:10:15;;;;;;;;;2.67;2.33;;;;;20.66;67.06;100714.03;5062690;28;45376;-77
2023/10/01 03:12:42;;;;;;;;;0.00;0.00;;;;;20.69;67.27;100722.88;5073228;28;45555;-77
2023/10/01 03:17:55;;;;;;;;;3.00;2.67;;;;;20.65;66.95;100706.09;5075721;28;45426;-77
2023/10/01 03:23:09;;;;;;;;;2.67;2.33;;;;;20.64;66.83;100710.53;5071207;28;45953;-73
2023/10/01 03:25:41;;;;;;;;;1.67;1.67;;;;;20.69;66.71;100715.81;5071992;28;45770;-77
2023/10/01 03:28:14;;;;;;;;;4.33;3.00;;;;;20.63;66.75;100707.88;5062348;28;46672;-73
2023/10/01 03:30:45;;;;;;;;;3.33;2.67;;;;;20.61;66.78;100705.25;5072132;28;45494;-73
2023/10/01 03:33:15;;;;;;;;;2.00;1.33;;;;;20.60;67.00;100707.91;5070162;28;46085;-74
2023/10/01 03:35:47;;;;;;;;;1.67;1.67;;;;;20.64;67.08;100717.63;5059954;28;45300;-73
2023/10/01 03:38:15;;;;;;;;;2.00;2.00;;;;;20.62;66.47;100717.63;5078833;28;45500;-72
2023/10/01 03:41:00;;;;;;;;;2.67;2.67;;;;;20.65;66.45;100722.91;5060994;28;45382;-73
2023/10/01 03:43:32;;;;;;;;;2.67;2.00;;;;;20.57;67.13;100714.09;5078048;28;45485;-73
2023/10/01 03:46:26;;;;;;;;;2.00;2.00;;;;;20.59;66.93;100708.78;5063030;28;45402;-74
2023/10/01 03:51:52;;;;;;;;;1.67;1.67;;;;;20.55;66.97;100713.25;5075018;28;46391;-73
2023/10/01 03:55:25;;;;;;;;;1.67;1.67;;;;;20.55;67.22;100704.38;5048866;28;47762;-73
2023/10/01 03:57:16;;;;;;;;;1.00;1.00;;;;;20.50;67.36;100706.22;5068783;28;45360;-73
2023/10/01 03:59:51;;;;;;;;;2.00;2.00;;;;;20.41;67.10;100694.78;5073563;27;45488;-73
2023/10/01 04:02:27;;;;;;;;;2.00;2.00;;;;;20.46;67.26;100706.22;5070201;28;45581;-76
2023/10/01 04:05:01;;;;;;;;;3.00;3.00;;;;;20.43;67.22;100697.41;5067739;28;45386;-76
2023/10/01 04:07:49;;;;;;;;;3.00;3.00;;;;;20.43;66.97;100698.31;5058553;28;45676;-73
2023/10/01 04:13:11;;;;;;;;;2.67;2.67;;;;;20.22;67.17;100675.47;5066667;28;45329;-74
2023/10/01 04:15:41;;;;;;;;;3.33;1.67;;;;;20.34;67.04;100698.38;5060541;28;45513;-73
2023/10/01 04:23:30;;;;;;;;;1.67;1.67;;;;;20.24;67.43;100688.72;5077355;28;45426;-73
2023/10/01 04:26:04;;;;;;;;;3.33;2.67;;;;;20.23;66.94;100694.91;5060220;28;45567;-73
2023/10/01 04:28:43;;;;;;;;;2.67;2.67;;;;;20.19;66.95;100693.16;5076808;28;45343;-74
2023/10/01 04:31:10;;;;;;;;;2.00;1.67;;;;;20.25;67.25;100693.13;5076507;28;45350;-73
2023/10/01 04:33:42;;;;;;;;;2.33;2.33;;;;;20.25;66.67;100696.66;5078538;28;45481;-77
2023/10/01 04:36:11;;;;;;;;;1.67;1.67;;;;;20.20;66.69;100686.97;5065560;28;45443;-77
2023/10/01 04:38:39;;;;;;;;;2.33;2.33;;;;;20.21;67.03;100696.69;5071638;28;45444;-73
2023/10/01 04:41:07;;;;;;;;;1.67;1.67;;;;;20.19;66.76;100690.50;5078179;28;45409;-73
2023/10/01 04:43:36;;;;;;;;;2.00;2.00;;;;;20.16;66.52;100682.59;5068052;28;45451;-74
2023/10/01 04:46:08;;;;;;;;;3.33;3.33;;;;;20.12;66.82;100687.03;5040032;28;45580;-73
2023/10/01 04:48:37;;;;;;;;;2.67;2.67;;;;;20.16;66.47;100688.78;5071031;28;45430;-74
2023/10/01 04:51:07;;;;;;;;;2.67;2.67;;;;;20.12;67.11;100692.34;5056676;28;45398;-73
2023/10/01 04:53:34;;;;;;;;;2.33;2.00;;;;;20.10;66.97;100687.94;5058109;28;45510;-73
2023/10/01 04:56:00;;;;;;;;;3.00;2.67;;;;;20.05;66.89;100688.84;5057344;28;45584;-73
2023/10/01 04:58:32;;;;;;;;;0.67;0.67;;;;;20.10;66.91;100696.78;5061605;28;45497;-73
2023/10/01 05:00:58;;;;;;;;;3.67;3.67;;;;;19.97;67.07;100684.47;5059647;28;45449;-76
2023/10/01 05:03:40;;;;;;;;;2.67;2.67;;;;;19.97;67.03;100695.94;5066386;28;45426;-75
2023/10/01 05:06:14;;;;;;;;;2.67;2.67;;;;;19.91;67.23;100688.03;5057777;28;45491;-76
2023/10/01 05:08:42;;;;;;;;;2.67;2.67;;;;;19.91;66.74;100695.13;5057537;28;45368;-73
2023/10/01 05:11:12;;;;;;;;;3.67;3.00;;;;;19.99;66.49;100704.78;5048470;28;45422;-76
2023/10/01 05:13:41;;;;;;;;;3.33;2.33;;;;;19.93;66.98;100694.22;5077569;28;45834;-77
2023/10/01 05:16:14;;;;;;;;;2.00;2.00;;;;;19.94;66.58;100700.41;5076405;28;46152;-76
2023/10/01 05:19:09;;;;;;;;;3.00;3.00;;;;;19.93;66.43;100703.94;5077370;28;45378;-74
2023/10/01 05:21:36;;;;;;;;;3.33;3.33;;;;;19.90;66.34;100702.22;5074644;28;46231;-73
2023/10/01 05:24:02;;;;;;;;;2.33;2.00;;;;;19.91;66.63;100700.44;5076666;28;45695;-72
2023/10/01 05:26:35;;;;;;;;;3.67;3.67;;;;;19.90;66.80;100698.69;5074254;28;45429;-75
2023/10/01 05:29:07;;;;;;;;;3.33;3.33;;;;;19.83;66.28;100682.78;5071287;28;45502;-77
2023/10/01 05:31:34;;;;;;;;;2.33;2.33;;;;;19.89;66.49;100697.78;5076225;28;45299;-74
2023/10/01 05:34:00;;;;;;;;;2.00;2.00;;;;;19.86;66.60;100685.44;5076437;28;45593;-72
2023/10/01 05:36:26;;;;;;;;;2.67;2.67;;;;;19.82;66.48;100677.50;5074939;27;45918;-73
2023/10/01 05:38:54;;;;;;;;;1.67;1.67;;;;;19.90;66.33;100694.25;5076284;28;45374;-76
2023/10/01 05:41:29;;;;;;;;;4.00;3.00;;;;;19.87;66.58;100694.25;5073150;28;45458;-72
2023/10/01 05:44:01;;;;;;;;;3.00;2.33;;;;;19.82;66.40;100682.81;5076059;28;45549;-73
2023/10/01 05:46:28;;;;;;;;;3.00;3.00;;;;;19.82;66.46;100683.69;5075109;28;48045;-73
2023/10/01 05:49:00;;;;;;;;;2.00;2.00;;;;;19.84;66.73;100681.91;5057190;28;45487;-73
2023/10/01 05:51:45;;;;;;;;;2.67;1.33;;;;;19.83;66.25;100685.44;5076091;28;45569;-72
2023/10/01 05:54:21;;;;;;;;;3.00;3.00;;;;;19.78;66.43;100674.00;5075092;28;45474;-73
2023/10/01 05:56:48;;;;;;;;;3.00;3.00;;;;;19.80;66.25;100674.00;5073531;28;45554;-76
2023/10/01 05:59:15;;;;;;;;;3.67;3.67;;;;;19.82;66.47;100678.38;5075851;27;45494;-73
2023/10/01 06:01:41;;;;;;;;;4.00;4.00;;;;;19.81;66.38;100681.91;5076460;28;45330;-74
2023/10/01 06:04:12;;;;;;;;;4.00;4.00;;;;;19.78;66.40;100678.41;5076247;28;45442;-76
2023/10/01 06:06:42;;;;;;;;;4.33;4.00;;;;;19.76;66.42;100672.25;5072369;28;45596;-76
2023/10/01 06:09:14;;;;;;;;;3.00;3.00;;;;;19.71;66.40;100661.66;5075663;28;45576;-75
2023/10/01 06:12:00;;;;;;;;;3.33;3.33;;;;;19.86;66.05;100692.50;5073771;28;45426;-74
2023/10/01 06:14:41;;;;;;;;;4.00;4.00;;;;;19.89;65.80;100692.47;5074545;28;45472;-76
2023/10/01 06:17:10;;;;;;;;;3.00;3.00;;;;;19.83;66.01;100674.81;5073748;28;46121;-77
2023/10/01 06:19:40;;;;;;;;;3.00;3.00;;;;;19.81;66.00;100683.69;5057259;28;45437;-76
2023/10/01 06:22:12;;;;;;;;;4.00;3.00;;;;;19.79;66.10;100682.81;5073772;28;45382;-76
2023/10/01 06:24:44;;;;;;;;;3.67;3.00;;;;;19.86;66.03;100687.22;5072547;28;45683;-75
2023/10/01 06:27:17;;;;;;;;;4.00;4.00;;;;;19.88;65.80;100685.44;5056271;28;46198;-76
2023/10/01 06:29:50;;;;;;;;;2.00;2.00;;;;;19.94;65.88;100689.81;5072832;28;45556;-74
2023/10/01 06:32:23;;;;;;;;;3.33;2.67;;;;;19.98;66.19;100697.72;5075110;28;45493;-76
2023/10/01 06:34:51;;;;;;;;;3.33;3.33;;;;;19.96;65.76;100686.25;5076072;28;45773;-76
2023/10/01 06:37:20;;;;;;;;;3.33;3.00;;;;;19.94;65.87;100682.72;5053162;28;45653;-72
2023/10/01 06:39:46;;;;;;;;;4.00;4.00;;;;;19.99;66.12;100694.16;5057374;28;45602;-76
2023/10/01 06:42:18;;;;;;;;;4.67;3.67;;;;;19.99;65.91;100699.47;5057211;28;45454;-75
2023/10/01 06:44:50;;;;;;;;;3.33;3.33;;;;;20.03;65.60;100700.34;5070775;28;45670;-73
2023/10/01 06:47:23;;;;;;;;;10.50;10.50;;;;;20.01;65.66;100691.53;5074025;28;46241;-74
2023/10/01 06:49:57;;;;;;;;;5.67;5.67;;;;;20.14;65.33;100702.94;5072977;28;45580;-75
2023/10/01 06:52:32;;;;;;;;;5.67;4.67;;;;;20.18;65.44;100704.69;5061612;28;45752;-75
2023/10/01 06:55:01;;;;;;;;;3.00;3.00;;;;;20.10;65.61;100690.59;5071595;28;45412;-76
2023/10/01 06:57:33;;;;;;;;;4.67;3.67;;;;;20.19;65.43;100699.38;5076438;28;46109;-74
2023/10/01 07:00:00;;;;;;;;;3.67;3.67;;;;;20.27;64.64;100707.25;5076620;28;45460;-76
2023/10/01 07:02:29;;;;;;;;;3.33;2.67;;;;;20.26;64.72;100697.53;5061197;28;45472;-77
2023/10/01 07:04:58;;;;;;;;;3.33;3.33;;;;;20.25;64.66;100698.41;5076129;28;45622;-76
2023/10/01 07:07:25;;;;;;;;;3.33;3.33;;;;;20.33;64.65;100707.19;5075447;28;46078;-77
2023/10/01 07:09:53;;;;;;;;;4.00;4.00;;;;;20.39;64.26;100712.47;5075051;28;45541;-72
2023/10/01 07:12:20;;;;;;;;;3.00;3.00;;;;;20.84;63.69;100696.19;5075308;27;45546;-75
2023/10/01 07:14:45;;;;;;;;;4.00;3.00;;;;;22.84;59.72;100689.00;5078263;28;45640;-75
2023/10/01 07:17:15;;;;;;;;;4.00;3.00;;;;;25.47;54.52;100684.63;5076694;28;45988;-76
2023/10/01 07:19:45;;;;;;;;;4.67;3.67;;;;;27.48;48.64;100684.22;5078139;28;45497;-74
2023/10/01 07:22:15;;;;;;;;;2.00;2.00;;;;;29.20;45.42;100678.94;5076763;28;45533;-73
2023/10/01 07:24:43;;;;;;;;;2.00;2.00;;;;;30.47;41.66;100672.00;5078357;28;45421;-76
2023/10/01 07:27:11;;;;;;;;;3.00;3.00;;;;;31.78;40.23;100683.94;5078679;28;45386;-77
2023/10/01 07:29:42;;;;;;;;;4.00;4.00;;;;;32.88;38.03;100679.31;5075155;28;45457;-77
2023/10/01 07:32:11;;;;;;;;;4.67;4.00;;;;;34.09;35.97;100684.31;5078021;28;45954;-73
2023/10/01 07:34:52;;;;;;;;;4.00;4.00;;;;;35.04;34.56;100672.41;5066531;27;45500;-77
2023/10/01 07:37:25;;;;;;;;;2.33;2.33;;;;;36.09;33.41;100680.28;5069682;28;45554;-76
2023/10/01 07:39:55;;;;;;;;;5.00;4.00;;;;;36.92;31.91;100677.53;5076102;28;45430;-77
2023/10/01 07:42:27;;;;;;;;;4.00;3.67;;;;;37.72;30.22;100683.91;5072992;28;45386;-73
2023/10/01 07:44:53;;;;;;;;;2.67;2.67;;;;;38.36;30.89;100685.84;5077975;28;45805;-77
2023/10/01 07:47:29;;;;;;;;;3.33;3.00;;;;;38.94;29.48;100689.06;5078524;27;45493;-77
2023/10/01 07:49:58;;;;;;;;;3.00;3.00;;;;;39.52;28.47;100690.41;5077289;28;45526;-73
2023/10/01 07:52:24;;;;;;;;;2.00;2.00;;;;;40.04;28.02;100684.81;5078115;28;45524;-73
2023/10/01 07:54:50;;;;;;;;;3.00;3.00;;;;;40.59;26.76;100696.09;5061825;28;45375;-79
2023/10/01 07:57:27;;;;;;;;;3.00;3.00;;;;;41.06;26.96;100693.41;5078275;28;46108;-79
2023/10/01 07:59:54;;;;;;;;;2.67;2.33;;;;;41.69;25.46;100694.66;5065054;28;45459;-79
2023/10/01 08:02:21;;;;;;;;;2.33;2.33;;;;;42.20;25.42;100692.31;5070989;28;45628;-79
2023/10/01 08:04:57;;;;;;;;;3.33;3.33;;;;;42.68;25.06;100700.16;5051414;28;45684;-79
2023/10/01 08:07:30;;;;;;;;;4.00;4.00;;;;;42.78;24.92;100699.16;5056622;28;45514;-79
2023/10/01 08:09:58;;;;;;;;;4.00;4.00;;;;;42.59;25.85;100694.75;5057908;28;45617;-76
2023/10/01 08:13:03;;;;;;;;;4.00;3.00;;;;;42.45;25.92;100702.53;5059562;28;45773;-78
2023/10/01 08:15:29;;;;;;;;;1.67;0.67;;;;;42.48;25.88;100704.97;5078914;28;45336;-81
2023/10/01 08:18:26;;;;;;;;;2.33;2.33;;;;;42.54;26.46;100705.34;5076027;28;46061;-74
2023/10/01 08:20:58;;;;;;;;;6.33;6.33;;;;;42.69;26.40;100709.25;5074666;28;45431;-74
2023/10/01 08:23:28;;;;;;;;;5.00;5.00;;;;;43.03;26.46;100711.25;5074454;28;45390;-74
2023/10/01 08:25:55;;;;;;;;;3.33;3.00;;;;;43.03;26.41;100719.47;5076854;28;45508;-79
2023/10/01 08:31:01;;;;;;;;;4.00;4.00;;;;;43.47;25.85;100714.78;5076914;28;45389;-73
2023/10/01 08:33:32;;;;;;;;;4.00;4.00;;;;;43.87;25.51;100715.13;5061604;28;45477;-73
2023/10/01 08:36:24;;;;;;;;;3.67;3.67;;;;;44.08;25.31;100711.94;5075851;28;45592;-73
2023/10/01 08:39:19;;;;;;;;;5.33;4.33;;;;;44.26;24.86;100714.56;5074056;28;45946;-74
2023/10/01 08:41:47;;;;;;;;;3.33;3.00;;;;;44.33;24.95;100712.84;5074829;28;46926;-78
2023/10/01 08:44:19;;;;;;;;;4.33;4.33;;;;;44.56;24.34;100707.53;5056217;28;45558;-78
2023/10/01 08:46:45;;;;;;;;;4.00;4.00;;;;;44.62;22.87;100692.22;5074613;28;45359;-73
2023/10/01 08:49:22;;;;;;;;;4.67;4.67;;;;;44.87;22.12;100709.63;5074849;28;45415;-77
2023/10/01 08:51:52;;;;;;;;;5.00;5.00;;;;;45.13;21.39;100711.28;5073729;28;45537;-73
2023/10/01 08:54:24;;;;;;;;;3.00;3.00;;;;;45.30;22.39;100717.66;5054984;28;45502;-78
2023/10/01 08:56:57;;;;;;;;;4.33;3.00;;;;;45.54;20.72;100714.78;5075787;28;45253;-75
2023/10/01 08:59:23;;;;;;;;;7.00;7.00;;;;;45.62;21.15;100723.03;5072638;28;45990;-78
2023/10/01 09:01:52;;;;;;;;;3.00;3.00;;;;;45.42;20.48;100727.25;5074896;28;45544;-77
2023/10/01 09:04:44;;;;;;;;;8.33;8.00;;;;;45.34;20.97;100719.00;5074339;28;45545;-79
2023/10/01 09:07:18;;;;;;;;;6.67;5.67;;;;;45.60;19.88;100730.63;5074792;28;45482;-75
2023/10/01 09:10:08;;;;;;;;;10.00;10.00;;;;;45.43;20.65;100721.56;5073096;28;45505;-76
2023/10/01 09:12:34;;;;;;;;;4.00;4.00;;;;;45.29;21.51;100719.56;5074937;28;45462;-77
2023/10/01 09:15:04;;;;;;;;;4.33;4.33;;;;;45.09;21.99;100724.56;5055346;28;45899;-75
2023/10/01 09:17:40;;;;;;;;;4.00;4.00;;;;;44.99;21.53;100730.28;5075481;28;45664;-78
2023/10/01 09:20:09;;;;;;;;;3.00;2.67;;;;;45.08;22.26;100725.59;5073511;28;45984;-74
2023/10/01 09:22:42;;;;;;;;;3.67;3.67;;;;;45.12;22.88;100726.97;5073617;28;45434;-78
2023/10/01 09:25:14;;;;;;;;;14.33;13.33;;;;;44.87;23.74;100723.41;5075249;28;45397;-74
2023/10/01 09:27:57;;;;;;;;;4.33;4.33;;;;;44.80;22.43;100728.72;5057632;28;45603;-74
2023/10/01 09:30:26;;;;;;;;;3.67;3.67;;;;;44.71;22.97;100729.78;5074684;28;45620;-74
2023/10/01 09:32:54;;;;;;;;;4.00;4.00;;;;;44.60;21.47;100719.09;5072953;28;45413;-76
2023/10/01 09:35:30;;;;;;;;;5.00;4.33;;;;;44.70;22.21;100728.03;5065071;28;45547;-75
2023/10/01 09:38:57;;;;;;;;;3.67;3.33;;;;;44.90;21.16;100727.72;5076323;28;45480;-75
2023/10/01 09:41:00;;;;;;;;;4.00;4.00;;;;;44.71;21.73;100717.88;5073265;28;45465;-75
2023/10/01 09:43:30;;;;;;;;;2.67;2.67;;;;;44.72;21.21;100714.09;5076492;28;45379;-74
2023/10/01 09:45:58;;;;;;;;;5.00;5.00;;;;;44.56;21.42;100718.56;5077302;28;45426;-77
2023/10/01 09:51:09;;;;;;;;;4.67;4.33;;;;;44.38;22.17;100723.34;5077232;28;45813;-74
2023/10/01 09:54:00;;;;;;;;;3.67;3.67;;;;;44.31;21.52;100725.91;5075356;28;45443;-78
2023/10/01 09:59:11;;;;;;;;;3.33;3.33;;;;;44.19;21.91;100719.91;5056849;28;45383;-74
2023/10/01 10:01:39;;;;;;;;;3.33;3.33;;;;;44.19;22.40;100727.28;5056204;28;45295;-73
2023/10/01 10:04:12;;;;;;;;;2.67;2.67;;;;;43.95;21.10;100720.66;5056414;28;45449;-73
2023/10/01 10:06:41;;;;;;;;;4.00;4.00;;;;;43.86;21.66;100725.28;5056926;28;45358;-78
2023/10/01 10:09:26;;;;;;;;;6.00;5.33;;;;;43.78;22.49;100728.00;5054763;28;45376;-73
2023/10/01 10:11:52;;;;;;;;;6.00;6.00;;;;;43.59;23.05;100729.09;5056919;28;45406;-73
2023/10/01 10:14:27;;;;;;;;;11.67;10.67;;;;;43.48;22.67;100722.00;5074994;28;45518;-73
2023/10/01 10:17:18;;;;;;;;;4.00;4.00;;;;;43.37;22.63;100719.53;5058852;28;45377;-73
2023/10/01 10:23:16;;;;;;;;;5.67;5.00;;;;;43.06;23.58;100724.66;5075835;28;45493;-76
2023/10/01 10:25:45;;;;;;;;;6.00;6.00;;;;;43.01;23.21;100727.03;5076620;28;45311;-72
2023/10/01 10:28:24;;;;;;;;;4.00;4.00;;;;;42.63;23.74;100715.38;5076421;28;45420;-76
2023/10/01 10:31:32;;;;;;;;;4.33;4.33;;;;;42.55;23.82;100718.06;5076380;28;45316;-73
2023/10/01 10:34:36;;;;;;;;;13.33;11.67;;;;;42.41;24.14;100720.31;5076538;28;46284;-75
2023/10/01 10:37:00;;;;;;;;;6.67;6.00;;;;;42.26;24.29;100705.41;5055341;28;45461;-77
2023/10/01 10:39:50;;;;;;;;;6.33;6.33;;;;;41.98;24.17;100712.81;5065297;28;45272;-79
2023/10/01 10:42:28;;;;;;;;;6.67;6.67;;;;;41.76;25.00;100719.56;5076625;28;45505;-73
2023/10/01 10:45:21;;;;;;;;;4.33;4.00;;;;;41.48;25.33;100717.66;5092129;27;46866;-73
2023/10/01 10:48:01;;;;;;;;;4.00;4.00;;;;;41.17;25.34;100717.03;5057551;28;45414;-73
2023/10/01 10:50:53;;;;;;;;;9.33;8.33;;;;;40.95;25.50;100718.25;5076805;28;45498;-73
2023/10/01 10:53:21;;;;;;;;;5.67;5.67;;;;;40.84;25.95;100715.66;5070039;28;45580;-74
2023/10/01 10:55:55;;;;;;;;;9.00;8.00;;;;;40.68;25.98;100724.44;5076541;28;46068;-73
2023/10/01 10:58:24;;;;;;;;;3.67;3.67;;;;;40.49;26.07;100707.03;5070703;28;45519;-75
2023/10/01 11:00:51;;;;;;;;;7.00;7.00;;;;;40.28;26.65;100717.22;5064727;28;45658;-73
2023/10/01 11:03:40;;;;;;;;;6.00;6.00;;;;;40.13;27.13;100706.69;5075741;28;45413;-74
2023/10/01 11:06:19;;;;;;;;;8.33;8.33;;;;;39.98;26.87;100708.13;5059030;28;46096;-73
2023/10/01 11:08:51;;;;;;;;;6.67;6.00;;;;;39.89;26.70;100708.94;5075098;28;45707;-73
2023/10/01 11:11:28;;;;;;;;;4.33;4.33;;;;;39.78;27.15;100716.22;5054399;28;45445;-73
2023/10/01 11:14:01;;;;;;;;;19.33;19.33;;;;;39.65;27.68;100701.94;5056154;28;45373;-78
2023/10/01 11:16:34;;;;;;;;;19.00;17.33;;;;;39.57;27.81;100716.31;5065065;28;45343;-78
2023/10/01 11:19:13;;;;;;;;;15.67;15.67;;;;;39.42;28.06;100714.06;5057418;28;45473;-78
2023/10/01 11:21:55;;;;;;;;;19.33;18.00;;;;;39.26;27.96;100709.09;5055370;28;45718;-74
2023/10/01 11:24:36;;;;;;;;;33.25;30.75;;;;;39.19;28.23;100709.63;5058705;28;45213;-78
2023/10/01 11:27:22;;;;;;;;;18.00;18.00;;;;;39.13;28.14;100707.44;5066945;27;45953;-76
2023/10/01 11:30:27;;;;;;;;;13.33;12.33;;;;;38.84;28.08;100700.91;5067536;28;45868;-77
2023/10/01 11:32:58;;;;;;;;;8.00;8.00;;;;;38.54;28.62;100705.28;5054348;28;45484;-73
2023/10/01 11:35:32;;;;;;;;;33.25;30.25;;;;;38.42;28.76;100695.38;5055909;28;45442;-73
2023/10/01 11:37:59;;;;;;;;;14.33;12.00;;;;;38.33;28.44;100697.06;5065637;28;46097;-74
2023/10/01 11:41:11;;;;;;;;;8.33;8.33;;;;;38.29;29.10;100703.75;5057701;28;45507;-74
2023/10/01 11:43:27;;;;;;;;;13.00;13.00;;;;;38.22;29.14;100706.13;5056085;28;45636;-78
2023/10/01 11:46:23;;;;;;;;;26.00;24.50;;;;;38.15;29.92;100700.31;5078885;28;45357;-74
2023/10/01 11:49:14;;;;;;;;;15.33;15.00;;;;;38.08;29.67;100700.97;5074333;28;46702;-78
2023/10/01 11:54:25;;;;;;;;;24.00;23.33;;;;;37.81;30.26;100696.78;5077820;28;45415;-73
2023/10/01 11:57:07;;;;;;;;;27.33;26.00;;;;;37.71;30.26;100696.69;5059501;28;45416;-73
2023/10/01 11:59:36;;;;;;;;;28.33;27.00;;;;;37.70;30.06;100700.38;5058383;28;45858;-73
2023/10/01 12:02:21;;;;;;;;;15.00;15.00;;;;;37.60;29.64;100688.50;5040285;28;45391;-74
2023/10/01 12:04:56;;;;;;;;;6.00;6.00;;;;;37.69;29.51;100695.09;5072374;28;45569;-73
2023/10/01 12:07:24;;;;;;;;;20.00;19.67;;;;;37.63;29.89;100682.81;5058817;28;45503;-72
2023/10/01 12:09:52;;;;;;;;;13.00;12.67;;;;;37.67;29.48;100688.91;5058060;28;45623;-77
2023/10/01 12:12:20;;;;;;;;;17.33;17.33;;;;;37.71;29.81;100691.22;5058454;28;45260;-72
2023/10/01 12:14:55;;;;;;;;;6.33;6.33;;;;;37.69;30.17;100685.03;5071726;28;45489;-72
2023/10/01 12:17:24;;;;;;;;;51.00;42.50;;;;;37.77;31.10;100679.81;5058269;28;45358;-72
2023/10/01 12:19:51;;;;;;;;;37.00;33.25;;;;;37.77;31.31;100674.38;5073732;28;45559;-72
2023/10/01 12:22:23;;;;;;;;;8.00;7.67;;;;;37.68;31.56;100668.81;5057911;28;45576;-72
2023/10/01 12:24:56;;;;;;;;;7.00;6.33;;;;;37.81;31.99;100678.56;5073842;28;45524;-73
2023/10/01 12:27:40;;;;;;;;;4.00;4.00;;;;;37.71;32.97;100669.44;5058331;28;46093;-73